Time;durP1;ratioP1;P1;durP2;ratioP2;P2;SDS_P1;SDS_P2;PMS_P1;PMS_P2;Temp;Humidity;BMP_temperature;BMP_pressure;BME280_temperature;BME280_humidity;BME280_pressure;Samples;Min_cycle;Max_cycle;Signal;HPM_P1;HPM_P2
2022/05/11 00:01:15;;;;;;;9.77;8.13;;;12.70;99.90;;;;;;5026131;28;20530;-73
2022/05/11 00:03:41;;;;;;;11.85;8.27;;;12.80;99.90;;;;;;5027820;28;20681;-73
2022/05/11 00:06:07;;;;;;;14.70;8.07;;;12.70;99.90;;;;;;5027997;28;20111;-73
2022/05/11 00:08:33;;;;;;;10.38;8.27;;;12.70;99.90;;;;;;5025802;28;20056;-73
2022/05/11 00:10:59;;;;;;;13.95;8.98;;;12.70;99.90;;;;;;5028187;28;20037;-74
2022/05/11 00:13:25;;;;;;;11.70;8.60;;;12.80;99.90;;;;;;5026685;28;20073;-73
2022/05/11 00:15:51;;;;;;;12.55;7.90;;;12.80;99.90;;;;;;5027345;28;20034;-73
2022/05/11 00:18:17;;;;;;;12.75;8.38;;;12.80;99.90;;;;;;5028008;28;20072;-74
2022/05/11 00:20:42;;;;;;;13.10;8.73;;;12.80;99.90;;;;;;5026809;28;20118;-74
2022/05/11 00:23:08;;;;;;;16.58;9.32;;;12.80;99.90;;;;;;5027617;28;20041;-73
2022/05/11 00:25:33;;;;;;;12.68;8.57;;;12.70;99.90;;;;;;5026532;28;20050;-73
2022/05/11 00:27:59;;;;;;;20.23;9.48;;;12.70;99.90;;;;;;5026171;28;20064;-74
2022/05/11 00:30:27;;;;;;;18.30;10.63;;;12.70;99.90;;;;;;5025687;28;20037;-73
2022/05/11 00:32:55;;;;;;;13.45;8.65;;;12.70;99.90;;;;;;5024682;28;20072;-74
2022/05/11 00:35:20;;;;;;;17.63;8.98;;;12.70;99.90;;;;;;5026138;28;20041;-74
2022/05/11 00:37:46;;;;;;;13.63;9.07;;;12.70;99.90;;;;;;5026919;28;20045;-74
2022/05/11 00:40:13;;;;;;;12.82;9.80;;;12.70;99.90;;;;;;5028033;28;20041;-73
2022/05/11 00:42:38;;;;;;;19.85;10.13;;;12.80;99.90;;;;;;5026523;28;20191;-74
2022/05/11 00:45:05;;;;;;;15.52;8.98;;;12.80;99.90;;;;;;5026845;28;20116;-73
2022/05/11 00:47:41;;;;;;;16.65;9.82;;;12.80;99.90;;;;;;5027436;28;20049;-74
2022/05/11 00:50:20;;;;;;;14.57;10.27;;;12.80;99.90;;;;;;5027307;28;20103;-73
2022/05/11 00:52:58;;;;;;;14.30;9.40;;;12.80;99.90;;;;;;5027598;28;20180;-74
2022/05/11 00:55:32;;;;;;;12.70;10.00;;;12.80;99.90;;;;;;5024500;28;20493;-73
2022/05/11 00:58:04;;;;;;;12.77;9.00;;;12.80;99.90;;;;;;5024243;28;20050;-74
2022/05/11 01:00:30;;;;;;;12.63;9.43;;;12.80;99.90;;;;;;5025885;28;20099;-73
2022/05/11 01:03:09;;;;;;;22.48;10.35;;;12.80;99.90;;;;;;5026896;28;20045;-73
2022/05/11 01:05:35;;;;;;;17.27;10.80;;;12.80;99.90;;;;;;5023227;28;20052;-73
2022/05/11 01:08:01;;;;;;;20.30;11.00;;;12.80;99.90;;;;;;5025539;28;20042;-74
2022/05/11 01:10:29;;;;;;;16.90;10.50;;;12.80;99.90;;;;;;5025054;28;20049;-74
2022/05/11 01:12:59;;;;;;;15.25;9.55;;;12.80;99.90;;;;;;5026044;28;20053;-74
2022/05/11 01:15:27;;;;;;;14.20;10.27;;;12.80;99.90;;;;;;5026255;28;20075;-74
2022/05/11 01:17:53;;;;;;;20.13;11.40;;;12.80;99.90;;;;;;5026850;28;20430;-74
2022/05/11 01:20:22;;;;;;;16.17;10.15;;;12.80;99.90;;;;;;5026538;28;20064;-73
2022/05/11 01:23:00;;;;;;;14.55;9.80;;;12.80;99.90;;;;;;5027316;28;20072;-74
2022/05/11 01:25:27;;;;;;;15.65;11.18;;;12.80;99.90;;;;;;5021964;28;20049;-75
2022/05/11 01:28:04;;;;;;;13.27;10.32;;;12.80;99.90;;;;;;5025425;28;20045;-74
2022/05/11 01:30:31;;;;;;;18.85;10.70;;;12.80;99.90;;;;;;5026410;28;20045;-73
2022/05/11 01:32:57;;;;;;;13.57;9.40;;;12.80;99.90;;;;;;5025838;28;20099;-74
2022/05/11 01:35:50;;;;;;;14.55;9.70;;;12.80;99.90;;;;;;5026378;28;20067;-74
2022/05/11 01:38:32;;;;;;;13.55;8.93;;;12.80;99.90;;;;;;5024839;28;20484;-73
2022/05/11 01:40:58;;;;;;;12.48;9.10;;;12.80;99.90;;;;;;5025960;28;20038;-74
2022/05/11 01:43:26;;;;;;;12.82;9.98;;;12.80;99.90;;;;;;5026718;28;20033;-74
2022/05/11 01:45:52;;;;;;;14.23;10.38;;;12.70;99.90;;;;;;5026116;28;20115;-73
2022/05/11 01:48:18;;;;;;;14.93;10.02;;;12.70;99.90;;;;;;5025698;28;20495;-74
2022/05/11 01:50:44;;;;;;;16.63;10.15;;;12.70;99.90;;;;;;5026120;28;20045;-74
2022/05/11 01:53:10;;;;;;;15.20;9.45;;;12.70;99.90;;;;;;5026732;28;20132;-73
2022/05/11 01:55:36;;;;;;;13.70;8.93;;;12.70;99.90;;;;;;5024024;28;20045;-74
2022/05/11 01:58:06;;;;;;;12.32;9.00;;;12.70;99.90;;;;;;5024165;28;20053;-74
2022/05/11 02:00:33;;;;;;;16.20;8.88;;;12.70;99.90;;;;;;5025721;28;20045;-74
2022/05/11 02:02:58;;;;;;;11.95;9.32;;;12.70;99.90;;;;;;5025904;28;20060;-74
2022/05/11 02:08:09;;;;;;;14.82;9.15;;;12.70;99.90;;;;;;5021798;28;20037;-74
2022/05/11 02:10:35;;;;;;;10.05;8.38;;;12.80;99.90;;;;;;5026023;28;20048;-74
2022/05/11 02:13:01;;;;;;;11.05;8.43;;;12.80;99.90;;;;;;5024466;28;20069;-74
2022/05/11 02:15:26;;;;;;;13.30;8.48;;;12.80;99.90;;;;;;5023403;28;20080;-75
2022/05/11 02:17:53;;;;;;;10.00;8.20;;;12.70;99.90;;;;;;5025471;28;20103;-74
2022/05/11 02:20:20;;;;;;;10.55;7.97;;;12.80;99.90;;;;;;5025357;28;20076;-74
2022/05/11 02:22:46;;;;;;;13.52;9.77;;;12.80;99.90;;;;;;5023755;28;20061;-74
2022/05/11 02:25:15;;;;;;;13.98;9.93;;;12.80;99.90;;;;;;5025933;28;20049;-74
2022/05/11 02:27:42;;;;;;;12.90;8.68;;;12.80;99.90;;;;;;5023609;28;20532;-74
2022/05/11 02:30:10;;;;;;;12.55;8.32;;;12.80;99.90;;;;;;5024570;28;20091;-74
2022/05/11 02:32:37;;;;;;;10.18;8.05;;;12.80;99.90;;;;;;5023934;28;20053;-74
2022/05/11 02:35:13;;;;;;;11.60;7.18;;;12.80;99.90;;;;;;5024100;28;20080;-74
2022/05/11 02:37:43;;;;;;;14.15;8.38;;;12.80;99.90;;;;;;5023607;28;20095;-74
2022/05/11 02:40:10;;;;;;;12.77;8.88;;;12.80;99.90;;;;;;5024674;28;20452;-74
2022/05/11 02:42:36;;;;;;;10.40;8.43;;;12.80;99.90;;;;;;5006839;28;20512;-74
2022/05/11 02:45:02;;;;;;;11.32;8.50;;;12.90;99.90;;;;;;5024951;28;20041;-74
2022/05/11 02:47:28;;;;;;;14.63;8.85;;;12.80;99.90;;;;;;5023938;28;20045;-74
2022/05/11 02:49:54;;;;;;;11.88;9.43;;;12.80;99.90;;;;;;5023223;28;20044;-74
2022/05/11 02:52:19;;;;;;;11.98;8.23;;;12.80;99.90;;;;;;5023948;28;20080;-74
2022/05/11 02:54:46;;;;;;;9.95;7.85;;;12.80;99.90;;;;;;5024800;28;20057;-75
2022/05/11 02:57:13;;;;;;;13.82;8.88;;;12.80;99.90;;;;;;5022854;28;20468;-74
2022/05/11 02:59:39;;;;;;;12.80;8.68;;;12.80;99.90;;;;;;5022603;28;20053;-74
2022/05/11 03:02:05;;;;;;;9.75;8.02;;;12.80;99.90;;;;;;5023833;28;20045;-75
2022/05/11 03:04:30;;;;;;;13.98;8.52;;;12.70;99.90;;;;;;5022978;28;20037;-74
2022/05/11 03:06:56;;;;;;;17.73;8.15;;;12.70;99.90;;;;;;5025486;28;20093;-74
2022/05/11 03:09:22;;;;;;;13.10;8.10;;;12.70;99.90;;;;;;5019966;28;20392;-74
2022/05/11 03:11:47;;;;;;;11.20;8.57;;;12.70;99.90;;;;;;5024534;28;20041;-74
2022/05/11 03:14:13;;;;;;;13.13;8.77;;;12.70;99.90;;;;;;5025148;28;20045;-74
2022/05/11 03:16:39;;;;;;;9.95;7.47;;;12.70;99.90;;;;;;5025342;28;20507;-73
2022/05/11 03:19:05;;;;;;;18.05;8.63;;;12.70;99.90;;;;;;5024448;28;20037;-74
2022/05/11 03:21:32;;;;;;;10.77;7.80;;;12.70;99.90;;;;;;5023678;28;20045;-74
2022/05/11 03:23:58;;;;;;;10.90;8.32;;;12.70;99.90;;;;;;5025567;28;20083;-75
2022/05/11 03:26:23;;;;;;;10.02;8.18;;;12.60;99.90;;;;;;5023105;28;20488;-74
2022/05/11 03:28:49;;;;;;;11.25;8.27;;;12.60;99.90;;;;;;5023530;28;20045;-74
2022/05/11 03:31:15;;;;;;;13.02;9.25;;;12.60;99.90;;;;;;5025031;28;20081;-73
2022/05/11 03:36:26;;;;;;;11.20;8.18;;;12.60;99.90;;;;;;5022686;28;20057;-74
2022/05/11 03:38:52;;;;;;;12.70;7.97;;;12.60;99.90;;;;;;5023728;28;20095;-74
2022/05/11 03:41:18;;;;;;;13.95;7.57;;;12.60;99.90;;;;;;5024098;28;20447;-74
2022/05/11 03:43:44;;;;;;;10.10;7.13;;;12.60;99.90;;;;;;5023140;28;20095;-74
2022/05/11 03:46:10;;;;;;;11.00;7.57;;;12.70;99.90;;;;;;5023203;28;20050;-73
2022/05/11 03:48:37;;;;;;;9.63;7.05;;;12.60;99.90;;;;;;5024607;28;20068;-74
2022/05/11 03:51:06;;;;;;;12.20;6.63;;;12.60;99.90;;;;;;5023444;28;20175;-73
2022/05/11 03:53:34;;;;;;;12.90;7.43;;;12.60;99.90;;;;;;5022851;28;20045;-74
2022/05/11 03:55:59;;;;;;;10.10;7.10;;;12.60;99.90;;;;;;5022761;28;20057;-75
2022/05/11 03:58:25;;;;;;;12.90;7.05;;;12.60;99.90;;;;;;5023648;28;20049;-74
2022/05/11 04:00:51;;;;;;;10.68;7.35;;;12.60;99.90;;;;;;5023086;28;20056;-74
2022/05/11 04:03:17;;;;;;;10.27;6.97;;;12.60;99.90;;;;;;5023222;28;20503;-74
2022/05/11 04:05:43;;;;;;;9.88;7.03;;;12.60;99.90;;;;;;5024980;28;20460;-74
2022/05/11 04:08:09;;;;;;;12.05;7.30;;;12.60;99.90;;;;;;5028010;28;20034;-74
2022/05/11 04:10:35;;;;;;;11.75;7.13;;;12.60;99.90;;;;;;5026272;28;20124;-74
2022/05/11 04:13:02;;;;;;;15.63;8.23;;;12.60;99.90;;;;;;5027459;28;20045;-75
2022/05/11 04:15:28;;;;;;;11.25;6.70;;;12.60;99.90;;;;;;5026000;28;20506;-74
2022/05/11 04:17:54;;;;;;;10.40;6.22;;;12.60;99.90;;;;;;5026487;28;20084;-74
2022/05/11 04:20:20;;;;;;;17.83;7.05;;;12.60;99.90;;;;;;5026553;28;20046;-74
2022/05/11 04:22:47;;;;;;;9.05;6.95;;;12.60;99.90;;;;;;5026747;28;21159;-74
2022/05/11 04:25:15;;;;;;;13.23;6.97;;;12.60;99.90;;;;;;5027528;28;20080;-74
2022/05/11 04:27:41;;;;;;;9.88;5.95;;;12.70;99.90;;;;;;5026679;28;20049;-74
2022/05/11 04:30:08;;;;;;;9.15;5.72;;;12.70;99.90;;;;;;5024796;28;20063;-74
2022/05/11 04:32:33;;;;;;;10.45;6.07;;;12.70;99.90;;;;;;5025844;28;20068;-74
2022/05/11 04:34:59;;;;;;;12.15;6.38;;;12.70;99.90;;;;;;5025622;28;20540;-74
2022/05/11 04:37:25;;;;;;;12.88;6.28;;;12.70;99.90;;;;;;5027130;28;20037;-74
2022/05/11 04:39:51;;;;;;;11.45;6.20;;;12.70;99.90;;;;;;5024947;28;20057;-74
2022/05/11 04:42:16;;;;;;;10.07;6.28;;;12.70;99.90;;;;;;5027292;28;20115;-74
2022/05/11 04:44:42;;;;;;;10.82;5.97;;;12.80;99.90;;;;;;5026059;28;20045;-75
2022/05/11 04:47:10;;;;;;;11.25;5.90;;;12.80;99.90;;;;;;5025900;28;20087;-74
2022/05/11 04:49:36;;;;;;;8.80;6.22;;;12.80;99.90;;;;;;5024449;28;20099;-74
2022/05/11 04:52:09;;;;;;;10.57;5.93;;;12.80;99.90;;;;;;5025867;28;20045;-74
2022/05/11 04:54:40;;;;;;;10.40;6.28;;;12.80;99.90;;;;;;5025290;28;20053;-74
2022/05/11 04:57:07;;;;;;;11.18;6.05;;;12.80;99.90;;;;;;5024473;28;20413;-74
2022/05/11 04:59:33;;;;;;;9.18;5.63;;;12.90;99.90;;;;;;5025366;28;20053;-74
2022/05/11 05:01:59;;;;;;;9.43;5.60;;;12.90;99.90;;;;;;5025216;28;20737;-75
2022/05/11 05:04:28;;;;;;;12.30;5.97;;;12.90;99.90;;;;;;5025026;28;20419;-74
2022/05/11 05:06:55;;;;;;;7.78;6.30;;;12.90;99.90;;;;;;5025871;28;20111;-74
2022/05/11 05:09:21;;;;;;;7.40;5.57;;;12.90;99.90;;;;;;5025569;28;20060;-74
2022/05/11 05:11:46;;;;;;;7.50;5.75;;;13.00;99.90;;;;;;5023958;28;20049;-74
2022/05/11 05:14:12;;;;;;;14.30;6.18;;;13.00;99.90;;;;;;5026038;28;20046;-74
2022/05/11 05:16:38;;;;;;;14.40;6.32;;;13.00;99.90;;;;;;5026657;28;20060;-74
2022/05/11 05:19:05;;;;;;;8.40;5.38;;;13.00;99.90;;;;;;5023935;28;20042;-74
2022/05/11 05:21:31;;;;;;;9.70;5.50;;;13.00;99.90;;;;;;5025883;28;20271;-73
2022/05/11 05:23:57;;;;;;;9.00;5.30;;;13.10;99.90;;;;;;5025255;28;20585;-73
2022/05/11 05:26:23;;;;;;;8.23;4.80;;;13.10;99.90;;;;;;5024998;28;20049;-74
2022/05/11 05:31:35;;;;;;;7.13;5.00;;;13.10;99.90;;;;;;5025697;28;20041;-74
2022/05/11 05:34:00;;;;;;;8.32;5.13;;;13.20;99.90;;;;;;5022804;28;20567;-74
2022/05/11 05:36:28;;;;;;;8.65;5.32;;;13.20;99.90;;;;;;5026083;28;20057;-73
2022/05/11 05:38:54;;;;;;;14.60;5.85;;;13.20;99.90;;;;;;5025798;28;20072;-74
2022/05/11 05:41:20;;;;;;;13.45;5.70;;;13.20;99.90;;;;;;5024693;28;20049;-74
2022/05/11 05:43:46;;;;;;;11.90;5.07;;;13.30;99.90;;;;;;5025773;28;20743;-74
2022/05/11 05:46:14;;;;;;;11.07;5.47;;;13.30;99.90;;;;;;5025690;28;20523;-74
2022/05/11 05:48:39;;;;;;;6.30;4.45;;;13.30;99.90;;;;;;5023454;28;20087;-73
2022/05/11 05:51:07;;;;;;;9.32;5.47;;;13.40;99.90;;;;;;5024573;28;20049;-74
2022/05/11 05:53:33;;;;;;;10.45;5.05;;;13.40;99.90;;;;;;5025039;28;20049;-74
2022/05/11 05:55:59;;;;;;;12.93;5.78;;;13.50;99.90;;;;;;5023576;28;20072;-73
2022/05/11 05:58:25;;;;;;;7.60;5.40;;;13.50;99.90;;;;;;5024887;28;20147;-74
2022/05/11 06:00:50;;;;;;;11.70;5.55;;;13.60;99.90;;;;;;5023287;28;20025;-74
2022/05/11 06:03:22;;;;;;;11.30;5.78;;;13.70;99.90;;;;;;5020377;28;20136;-74
2022/05/11 06:05:48;;;;;;;9.85;5.63;;;13.70;99.90;;;;;;5025343;28;20077;-74
2022/05/11 06:08:16;;;;;;;11.98;5.40;;;13.70;99.90;;;;;;5024936;28;20073;-74
2022/05/11 06:10:45;;;;;;;10.73;4.45;;;13.80;99.90;;;;;;5024101;28;20110;-74
2022/05/11 06:13:13;;;;;;;14.93;4.97;;;13.80;99.90;;;;;;5024169;28;20041;-74
2022/05/11 06:15:39;;;;;;;10.95;4.82;;;13.80;99.90;;;;;;5023238;28;20132;-73
2022/05/11 06:18:09;;;;;;;14.15;5.43;;;13.90;99.90;;;;;;5025257;28;20107;-74
2022/05/11 06:20:35;;;;;;;7.28;5.03;;;14.00;99.90;;;;;;5023336;28;20077;-75
2022/05/11 06:23:03;;;;;;;11.00;5.93;;;14.10;99.90;;;;;;5023095;28;20046;-74
2022/05/11 06:25:30;;;;;;;14.63;5.03;;;14.10;99.90;;;;;;5023817;28;20241;-74
2022/05/11 06:27:58;;;;;;;14.13;6.40;;;14.30;99.90;;;;;;5024920;28;20048;-74
2022/05/11 06:30:28;;;;;;;8.60;5.25;;;14.30;99.90;;;;;;5023359;28;20069;-74
2022/05/11 06:32:54;;;;;;;10.63;4.70;;;14.40;99.90;;;;;;5024016;28;20432;-74
2022/05/11 06:35:20;;;;;;;12.50;5.30;;;14.50;99.90;;;;;;5022637;28;20064;-74
2022/05/11 06:37:46;;;;;;;13.90;5.20;;;14.00;99.90;;;;;;5022935;28;20049;-74
2022/05/11 06:40:14;;;;;;;11.57;5.28;;;14.50;99.90;;;;;;5023670;28;20037;-74
2022/05/11 06:42:40;;;;;;;9.82;5.13;;;14.60;99.90;;;;;;5022346;28;20696;-73
2022/05/11 06:45:06;;;;;;;12.05;5.35;;;14.60;99.90;;;;;;5024794;28;20033;-74
2022/05/11 06:47:33;;;;;;;17.23;6.00;;;14.50;99.90;;;;;;5023502;28;20049;-73
2022/05/11 06:49:58;;;;;;;21.85;5.93;;;14.60;99.90;;;;;;5024396;28;20041;-73
2022/05/11 06:52:24;;;;;;;11.90;4.95;;;14.60;99.90;;;;;;5022916;28;20049;-73
2022/05/11 07:00:19;;;;;;;13.23;5.60;;;14.70;99.90;;;;;;5023114;28;20053;-74
2022/05/11 07:02:45;;;;;;;11.80;4.82;;;14.70;99.90;;;;;;5024222;28;20092;-74
2022/05/11 07:05:11;;;;;;;12.05;5.00;;;14.70;99.90;;;;;;5024203;28;20042;-74
2022/05/11 07:07:37;;;;;;;12.02;5.68;;;14.70;99.90;;;;;;5023318;28;20479;-74
2022/05/11 07:10:04;;;;;;;11.85;5.07;;;14.80;99.90;;;;;;5023115;28;20043;-74
2022/05/11 07:12:37;;;;;;;13.25;5.60;;;14.80;99.90;;;;;;5024057;28;20044;-74
2022/05/11 07:15:07;;;;;;;18.40;6.60;;;14.80;99.90;;;;;;5023015;28;20053;-74
2022/05/11 07:17:47;;;;;;;13.20;5.03;;;14.80;99.90;;;;;;5020651;28;20411;-74
2022/05/11 07:20:17;;;;;;;10.45;5.13;;;14.80;99.90;;;;;;5018479;28;20049;-74
2022/05/11 07:22:42;;;;;;;15.55;5.45;;;14.90;99.90;;;;;;5019679;28;20088;-76
2022/05/11 07:25:12;;;;;;;10.40;4.97;;;15.00;99.90;;;;;;5019685;28;20073;-76
2022/05/11 07:27:38;;;;;;;12.85;4.72;;;15.10;99.90;;;;;;5022421;28;20075;-75
2022/05/11 07:30:07;;;;;;;11.48;4.85;;;15.10;99.90;;;;;;5022446;28;20516;-76
2022/05/11 07:32:33;;;;;;;16.90;4.82;;;15.20;99.90;;;;;;5021062;28;20037;-76
2022/05/11 07:34:59;;;;;;;11.15;4.28;;;15.30;99.90;;;;;;5022540;28;20128;-75
2022/05/11 07:37:24;;;;;;;9.55;3.15;;;15.40;99.90;;;;;;5023676;28;20121;-75
2022/05/11 07:39:51;;;;;;;14.13;4.20;;;15.50;99.90;;;;;;5021733;28;20044;-75
2022/05/11 07:42:16;;;;;;;12.10;3.88;;;15.60;99.90;;;;;;5024143;28;20076;-75
2022/05/11 07:44:43;;;;;;;10.90;3.63;;;15.70;99.90;;;;;;5027178;28;20500;-75
2022/05/11 07:47:10;;;;;;;14.93;3.67;;;15.70;99.90;;;;;;5027605;28;20037;-75
2022/05/11 07:49:37;;;;;;;14.35;4.10;;;15.70;99.90;;;;;;5028289;28;20080;-71
2022/05/11 07:52:04;;;;;;;9.18;3.00;;;15.70;99.90;;;;;;5027945;28;20049;-74
2022/05/11 07:54:30;;;;;;;12.77;4.28;;;15.90;99.90;;;;;;5028685;28;20077;-70
2022/05/11 07:59:57;;;;;;;13.23;3.90;;;16.20;99.90;;;;;;5029214;28;20416;-73
2022/05/11 08:02:27;;;;;;;6.95;3.30;;;16.30;99.90;;;;;;5028038;28;20542;-73
2022/05/11 08:05:04;;;;;;;10.57;4.00;;;16.30;99.90;;;;;;5029627;28;20045;-73
2022/05/11 08:07:40;;;;;;;9.00;4.22;;;16.20;99.90;;;;;;5028920;28;20072;-72
2022/05/11 08:10:07;;;;;;;13.85;4.50;;;16.20;99.90;;;;;;5028575;28;20034;-73
2022/05/11 08:12:33;;;;;;;12.00;3.95;;;16.20;99.90;;;;;;5031433;28;20053;-74
2022/05/11 08:14:59;;;;;;;10.43;3.90;;;16.20;99.90;;;;;;5021117;28;20049;-73
2022/05/11 08:17:31;;;;;;;11.30;3.70;;;16.30;99.90;;;;;;5022935;28;20067;-72
2022/05/11 08:19:57;;;;;;;;;;;16.40;99.90;;;;;;5027440;28;20072;-72
2022/05/11 08:22:24;;;;;;;14.90;4.47;;;16.40;99.90;;;;;;5025137;28;19920;-73
2022/05/11 08:24:51;;;;;;;15.07;4.30;;;16.40;99.90;;;;;;5027552;28;20049;-72
2022/05/11 08:27:20;;;;;;;12.18;4.32;;;16.50;99.90;;;;;;5025022;28;20127;-74
2022/05/11 08:35:15;;;;;;;8.75;3.88;;;16.70;99.90;;;;;;5025740;28;20049;-73
2022/05/11 08:37:41;;;;;;;11.02;3.85;;;16.80;99.90;;;;;;5026228;28;20584;-75
2022/05/11 08:40:07;;;;;;;13.40;4.03;;;16.90;99.90;;;;;;5026522;28;20037;-75
2022/05/11 08:42:36;;;;;;;15.90;4.13;;;16.30;99.90;;;;;;5024493;28;20136;-75
2022/05/11 08:45:02;;;;;;;14.68;4.03;;;17.00;99.90;;;;;;5025809;28;20451;-75
2022/05/11 08:47:33;;;;;;;13.45;3.78;;;17.00;99.90;;;;;;5028096;28;20049;-76
2022/05/11 08:50:19;;;;;;;12.65;3.55;;;16.90;99.90;;;;;;5026701;28;20092;-76
2022/05/11 08:52:56;;;;;;;15.95;4.30;;;16.90;99.90;;;;;;5025317;28;20120;-75
2022/05/11 08:55:47;;;;;;;15.82;4.18;;;16.90;99.90;;;;;;5024312;28;20408;-74
2022/05/11 08:58:25;;;;;;;10.77;3.60;;;16.90;99.90;;;;;;4986034;28;20053;-74
2022/05/11 09:00:54;;;;;;;12.18;4.43;;;16.90;99.90;;;;;;4988339;28;20118;-74
2022/05/11 09:03:39;;;;;;;12.05;4.25;;;16.90;99.90;;;;;;4987464;28;20294;-74
2022/05/11 09:06:27;;;;;;;13.25;4.03;;;16.90;99.90;;;;;;4988768;28;20050;-76
2022/05/11 09:08:58;;;;;;;13.10;3.78;;;16.90;99.90;;;;;;4966792;28;20463;-75
2022/05/11 09:11:41;;;;;;;21.65;4.07;;;16.70;99.90;;;;;;4983074;28;20042;-75
2022/05/11 09:14:07;;;;;;;12.85;3.88;;;16.80;99.90;;;;;;4984799;28;20052;-75
2022/05/11 09:16:41;;;;;;;17.33;4.07;;;17.00;99.90;;;;;;4985760;28;20374;-76
2022/05/11 09:19:22;;;;;;;15.60;4.10;;;17.30;99.90;;;;;;4971827;28;20950;-75
2022/05/11 09:21:50;;;;;;;14.90;3.42;;;17.60;99.90;;;;;;4981798;28;20064;-75
2022/05/11 09:24:18;;;;;;;10.02;2.80;;;17.70;99.90;;;;;;4974482;28;20054;-74
2022/05/11 09:26:47;;;;;;;12.00;2.97;;;17.90;99.90;;;;;;4985814;28;20042;-75
2022/05/11 09:29:12;;;;;;;12.02;3.35;;;17.90;99.90;;;;;;4985830;28;20063;-73
2022/05/11 09:31:38;;;;;;;8.73;2.25;;;17.80;99.90;;;;;;4986397;28;20100;-74
2022/05/11 09:34:06;;;;;;;11.45;2.45;;;17.80;99.90;;;;;;4983832;28;20073;-73
2022/05/11 09:36:36;;;;;;;11.50;3.13;;;17.80;99.90;;;;;;4983443;28;20160;-73
2022/05/11 09:39:16;;;;;;;8.25;2.22;;;17.70;99.90;;;;;;4983330;28;20056;-74
2022/05/11 09:41:48;;;;;;;8.55;2.25;;;17.60;99.90;;;;;;4982717;28;20038;-76
2022/05/11 09:44:26;;;;;;;9.23;2.10;;;17.40;99.90;;;;;;4984942;28;20053;-75
2022/05/11 09:46:54;;;;;;;14.10;2.40;;;17.10;99.90;;;;;;4982116;28;20057;-76
2022/05/11 09:49:24;;;;;;;10.13;3.00;;;16.90;99.90;;;;;;4985897;28;20053;-76
2022/05/11 09:51:53;;;;;;;13.38;2.53;;;17.10;99.90;;;;;;4986742;28;20050;-76
2022/05/11 09:54:21;;;;;;;7.20;2.15;;;17.40;99.90;;;;;;4986154;28;20065;-73
2022/05/11 09:56:58;;;;;;;13.32;2.58;;;17.70;99.90;;;;;;4991540;28;20066;-74
2022/05/11 09:59:46;;;;;;;9.02;2.33;;;17.90;99.90;;;;;;5023031;28;20083;-75
2022/05/11 10:02:42;;;;;;;7.82;2.17;;;18.00;99.90;;;;;;5019422;28;20057;-75
2022/05/11 10:05:15;;;;;;;16.30;2.83;;;18.00;99.90;;;;;;5019750;28;20049;-74
2022/05/11 10:08:05;;;;;;;8.48;2.20;;;18.00;99.90;;;;;;5022830;28;20488;-76
2022/05/11 10:10:42;;;;;;;9.73;2.47;;;17.90;99.90;;;;;;5024044;28;20211;-76
2022/05/11 10:13:32;;;;;;;10.55;2.55;;;18.00;99.90;;;;;;5024473;28;20049;-75
2022/05/11 10:21:52;;;;;;;11.07;1.67;;;18.20;99.90;;;;;;5024207;28;20057;-74
2022/05/11 10:24:24;;;;;;;9.18;2.35;;;18.40;99.90;;;;;;5024726;28;20444;-74
2022/05/11 10:27:08;;;;;;;10.32;3.00;;;18.50;99.90;;;;;;5026088;28;20048;-75
2022/05/11 10:29:50;;;;;;;11.07;2.78;;;18.40;99.90;;;;;;5020925;28;20058;-75
2022/05/11 10:32:31;;;;;;;7.25;2.15;;;18.40;99.90;;;;;;5027852;28;20057;-75
2022/05/11 10:34:57;;;;;;;8.05;1.65;;;18.50;99.90;;;;;;5022130;28;20045;-75
2022/05/11 10:37:32;;;;;;;11.18;2.60;;;18.50;99.90;;;;;;5019499;28;20049;-74
2022/05/11 10:40:25;;;;;;;9.40;2.22;;;18.50;99.90;;;;;;5023561;28;20041;-73
2022/05/11 10:43:12;;;;;;;16.15;3.58;;;18.30;99.90;;;;;;5021573;28;20060;-72
2022/05/11 10:45:51;;;;;;;7.68;2.42;;;18.20;99.90;;;;;;5024711;28;20507;-73
2022/05/11 10:48:35;;;;;;;8.48;2.08;;;18.00;99.90;;;;;;5021873;28;20052;-72
2022/05/11 10:51:21;;;;;;;11.88;3.55;;;18.00;99.90;;;;;;5024458;28;20045;-72
2022/05/11 10:53:58;;;;;;;7.95;2.45;;;18.20;99.90;;;;;;5022912;28;20049;-75
2022/05/11 10:56:54;;;;;;;8.55;2.65;;;18.30;99.90;;;;;;5024423;28;20057;-74
2022/05/11 10:59:55;;;;;;;6.80;2.17;;;18.50;99.90;;;;;;5021109;28;20263;-75
2022/05/11 11:02:22;;;;;;;14.98;3.13;;;18.80;99.90;;;;;;5018056;28;20749;-74
2022/05/11 11:05:10;;;;;;;9.52;2.42;;;19.00;99.90;;;;;;5016312;28;20053;-74
2022/05/11 11:07:53;;;;;;;7.35;2.13;;;19.00;99.90;;;;;;5025068;28;20128;-75
2022/05/11 11:10:48;;;;;;;11.35;2.45;;;19.00;99.90;;;;;;5022738;28;20052;-76
2022/05/11 11:13:52;;;;;;;5.75;2.28;;;19.10;99.90;;;;;;5024365;28;20038;-75
2022/05/11 11:16:18;;;;;;;7.53;1.88;;;19.20;99.90;;;;;;4984654;28;20128;-75
2022/05/11 11:18:48;;;;;;;13.50;2.53;;;19.40;99.90;;;;;;4985424;28;20049;-75
2022/05/11 11:21:14;;;;;;;8.40;2.63;;;19.50;99.90;;;;;;5002961;28;20136;-76
2022/05/11 11:23:43;;;;;;;9.07;2.20;;;19.50;99.90;;;;;;5022973;28;20057;-77
2022/05/11 11:26:12;;;;;;;8.88;2.78;;;19.50;99.90;;;;;;5022905;28;20057;-76
2022/05/11 11:28:41;;;;;;;9.90;2.88;;;19.50;99.90;;;;;;5025235;28;20041;-74
2022/05/11 11:31:09;;;;;;;7.95;2.10;;;19.50;99.90;;;;;;5022172;28;20038;-74
2022/05/11 11:33:39;;;;;;;11.20;2.55;;;19.50;99.90;;;;;;5025440;28;20049;-73
2022/05/11 11:36:27;;;;;;;9.07;2.33;;;19.60;99.90;;;;;;5024423;28;20042;-73
2022/05/11 11:38:58;;;;;;;10.05;2.95;;;19.80;99.90;;;;;;5015807;28;20061;-73
2022/05/11 11:41:32;;;;;;;9.27;2.28;;;19.80;99.90;;;;;;5023247;28;20037;-73
2022/05/11 11:44:01;;;;;;;15.93;3.60;;;19.80;99.90;;;;;;5015504;28;20519;-74
2022/05/11 11:46:44;;;;;;;11.45;2.63;;;19.60;99.90;;;;;;5019679;28;20064;-74
2022/05/11 11:49:18;;;;;;;7.60;2.80;;;19.60;99.90;;;;;;5018785;28;20096;-75
2022/05/11 11:51:58;;;;;;;11.55;2.55;;;19.40;99.90;;;;;;5022667;28;20110;-74
2022/05/11 11:54:39;;;;;;;13.27;3.22;;;19.10;99.60;;;;;;5024765;28;20550;-74
2022/05/11 11:57:24;;;;;;;11.82;3.30;;;18.50;99.90;;;;;;5024145;28;20060;-74
2022/05/11 11:59:53;;;;;;;10.93;2.83;;;18.60;99.90;;;;;;5022094;28;20056;-74
2022/05/11 12:02:40;;;;;;;9.85;2.60;;;18.40;99.90;;;;;;5021273;28;20041;-75
2022/05/11 12:05:33;;;;;;;7.28;3.03;;;18.20;99.90;;;;;;5024602;28;20033;-75
2022/05/11 12:16:57;;;;;;;13.13;3.17;;;18.00;99.90;;;;;;5023565;28;20062;-75
2022/05/11 12:19:25;;;;;;;8.25;2.92;;;18.10;99.90;;;;;;5023634;28;20483;-75
2022/05/11 12:22:00;;;;;;;13.82;3.45;;;18.20;99.90;;;;;;5023309;28;20049;-75
2022/05/11 12:24:38;;;;;;;13.55;3.45;;;18.20;99.90;;;;;;5022179;28;20045;-74
2022/05/11 12:27:07;;;;;;;11.25;3.03;;;18.30;99.90;;;;;;5020841;28;20131;-75
2022/05/11 12:32:23;;;;;;;7.55;2.35;;;18.70;99.90;;;;;;5024221;28;20087;-75
2022/05/11 12:34:49;;;;;;;11.50;2.97;;;18.70;99.90;;;;;;5024521;28;20048;-75
2022/05/11 12:37:22;;;;;;;12.13;3.60;;;18.60;99.90;;;;;;5027169;28;20049;-74
2022/05/11 12:40:05;;;;;;;19.20;3.28;;;18.50;99.90;;;;;;5022617;28;20134;-75
2022/05/11 12:42:34;;;;;;;10.45;2.58;;;18.60;99.90;;;;;;5023520;28;20058;-73
2022/05/11 12:45:00;;;;;;;9.30;2.80;;;18.70;99.90;;;;;;5026145;28;20514;-74
2022/05/11 12:47:28;;;;;;;13.77;3.17;;;18.90;99.90;;;;;;5026402;28;20045;-74
2022/05/11 12:49:54;;;;;;;16.75;3.20;;;18.90;99.90;;;;;;5024825;28;20100;-71
2022/05/11 12:52:23;;;;;;;14.75;2.90;;;19.00;99.90;;;;;;5027097;28;20069;-74
2022/05/11 12:55:01;;;;;;;7.47;2.13;;;18.90;99.90;;;;;;5026256;28;20033;-72
2022/05/11 12:57:39;;;;;;;9.38;2.83;;;18.80;99.90;;;;;;5023996;28;20510;-77
2022/05/11 13:00:18;;;;;;;12.55;2.97;;;18.70;99.90;;;;;;5025519;28;20041;-75
2022/05/11 13:02:45;;;;;;;7.88;1.92;;;18.70;99.90;;;;;;5023763;28;20045;-76
2022/05/11 13:05:16;;;;;;;9.18;2.67;;;18.70;99.90;;;;;;5025149;28;20077;-76
2022/05/11 13:07:50;;;;;;;10.32;3.13;;;17.50;99.90;;;;;;5024644;28;20812;-74
2022/05/11 13:10:28;;;;;;;10.70;2.88;;;18.70;99.90;;;;;;5024615;28;20132;-75
2022/05/11 13:12:56;;;;;;;6.88;2.45;;;18.80;99.90;;;;;;5026130;28;20412;-74
2022/05/11 13:15:36;;;;;;;13.27;3.38;;;18.90;99.90;;;;;;5025945;28;20488;-75
2022/05/11 13:18:04;;;;;;;13.98;3.47;;;19.10;99.90;;;;;;5024675;28;20143;-73
2022/05/11 13:20:36;;;;;;;7.90;2.58;;;19.40;99.90;;;;;;5025694;28;20051;-75
2022/05/11 13:23:11;;;;;;;12.00;3.22;;;19.70;99.90;;;;;;5023652;28;20041;-77
2022/05/11 13:25:52;;;;;;;10.93;2.65;;;19.90;99.90;;;;;;5023273;28;20052;-77
2022/05/11 13:28:28;;;;;;;7.60;2.30;;;20.00;99.80;;;;;;5023122;28;20041;-77
2022/05/11 13:31:00;;;;;;;9.20;2.58;;;19.90;99.90;;;;;;5023893;28;20060;-75
2022/05/11 13:33:40;;;;;;;9.02;2.17;;;19.60;99.90;;;;;;5022820;28;20400;-75